Time;durP1;ratioP1;P1;durP2;ratioP2;P2;SDS_P1;SDS_P2;PMS_P1;PMS_P2;Temp;Humidity;BMP_temperature;BMP_pressure;BME280_temperature;BME280_humidity;BME280_pressure;Samples;Min_cycle;Max_cycle;Signal;HPM_P1;HPM_P2
2021/05/09 00:00:32;;;;;;;7.93;4.32;;;13.70;74.60;;;;;;5022642;28;20433;-81
2021/05/09 00:02:58;;;;;;;5.85;4.05;;;13.70;73.10;;;;;;5021303;28;20018;-83
2021/05/09 00:05:24;;;;;;;6.03;3.90;;;13.60;73.80;;;;;;5038965;28;20173;-80
2021/05/09 00:07:50;;;;;;;6.53;3.65;;;13.30;71.50;;;;;;5036169;28;20056;-81
2021/05/09 00:10:18;;;;;;;6.78;4.13;;;12.90;72.20;;;;;;5032432;28;20460;-81
2021/05/09 00:12:44;;;;;;;5.32;3.90;;;12.40;74.40;;;;;;5023297;28;20500;-85
2021/05/09 00:15:12;;;;;;;5.47;4.13;;;12.10;75.80;;;;;;5042826;28;20056;-84
2021/05/09 00:17:41;;;;;;;4.72;3.80;;;12.20;77.30;;;;;;5042235;28;20013;-80
2021/05/09 00:20:09;;;;;;;5.90;3.97;;;12.00;78.00;;;;;;5024025;28;20546;-84
2021/05/09 00:22:38;;;;;;;6.75;3.83;;;11.80;78.40;;;;;;5038144;28;20017;-80
2021/05/09 00:25:05;;;;;;;6.05;4.40;;;11.70;79.40;;;;;;5041637;28;20035;-82
2021/05/09 00:27:31;;;;;;;9.00;4.93;;;11.70;79.90;;;;;;5041373;28;20380;-78
2021/05/09 00:29:57;;;;;;;6.57;4.50;;;11.60;80.40;;;;;;5039127;28;20464;-79
2021/05/09 00:32:22;;;;;;;5.70;4.22;;;11.50;80.70;;;;;;5036947;28;20435;-80
2021/05/09 00:34:48;;;;;;;8.52;4.35;;;11.50;80.80;;;;;;5046155;28;20051;-77
2021/05/09 00:37:14;;;;;;;10.27;4.50;;;11.90;80.50;;;;;;5040111;28;20025;-79
2021/05/09 00:39:40;;;;;;;6.38;4.20;;;11.90;78.40;;;;;;5037915;28;20049;-81
2021/05/09 00:42:07;;;;;;;6.40;4.35;;;11.30;79.70;;;;;;5034223;28;20024;-82
2021/05/09 00:44:34;;;;;;;8.02;4.22;;;11.20;79.20;;;;;;5040816;28;20033;-78
2021/05/09 00:47:12;;;;;;;6.03;4.13;;;11.10;80.30;;;;;;5039035;28;20033;-79
2021/05/09 00:49:41;;;;;;;7.45;4.20;;;11.10;79.30;;;;;;5038180;28;20021;-77
2021/05/09 00:52:11;;;;;;;7.30;4.05;;;11.30;79.40;;;;;;5038745;28;20031;-79
2021/05/09 00:54:44;;;;;;;5.55;4.07;;;11.70;79.60;;;;;;5039245;28;20029;-76
2021/05/09 00:57:13;;;;;;;7.88;4.32;;;11.30;78.70;;;;;;5051662;28;20029;-78
2021/05/09 00:59:42;;;;;;;6.05;3.83;;;11.30;79.10;;;;;;5051542;28;20415;-79
2021/05/09 01:02:09;;;;;;;5.65;4.18;;;11.40;77.80;;;;;;5050934;28;20029;-80
2021/05/09 01:04:35;;;;;;;7.82;4.55;;;11.60;78.60;;;;;;5051647;28;20415;-82
2021/05/09 01:07:02;;;;;;;110.15;54.63;;;11.90;79.60;;;;;;5052582;28;20025;-89
2021/05/09 01:09:28;;;;;;;42.85;24.33;;;12.20;80.70;;;;;;5052248;28;20029;-85
2021/05/09 01:11:54;;;;;;;11.70;7.90;;;12.40;80.10;;;;;;5052434;28;20067;-85
2021/05/09 01:14:20;;;;;;;15.25;9.80;;;12.40;78.50;;;;;;5054559;28;20051;-88
2021/05/09 01:16:45;;;;;;;20.95;11.75;;;12.80;79.60;;;;;;5049548;28;20055;-92
2021/05/09 01:19:11;;;;;;;27.35;16.00;;;12.80;80.20;;;;;;5047957;28;20049;-91
2021/05/09 01:21:38;;;;;;;11.60;7.20;;;12.90;78.30;;;;;;5055391;28;20029;-91
2021/05/09 01:24:04;;;;;;;9.07;5.88;;;12.70;79.70;;;;;;5051988;28;20032;-80
2021/05/09 01:26:30;;;;;;;5.15;3.78;;;12.50;78.50;;;;;;5051340;28;20044;-81
2021/05/09 01:28:56;;;;;;;5.72;3.83;;;12.00;77.90;;;;;;5051334;28;20025;-85
2021/05/09 01:31:23;;;;;;;7.05;4.90;;;11.20;79.10;;;;;;5051255;28;20029;-83
2021/05/09 01:33:48;;;;;;;6.25;4.57;;;11.60;79.90;;;;;;5050922;28;20043;-84
2021/05/09 01:36:14;;;;;;;6.50;4.65;;;11.40;80.90;;;;;;5051357;28;20017;-82
2021/05/09 01:38:40;;;;;;;6.47;4.18;;;11.70;80.30;;;;;;5051257;28;20049;-83
2021/05/09 01:41:06;;;;;;;7.43;4.00;;;12.00;80.50;;;;;;5050628;28;20108;-78
2021/05/09 01:43:35;;;;;;;5.78;4.18;;;12.00;80.40;;;;;;5050813;28;20028;-79
2021/05/09 01:46:01;;;;;;;7.57;4.35;;;12.10;80.10;;;;;;5051108;28;20022;-85
2021/05/09 01:48:27;;;;;;;5.15;4.10;;;12.10;79.40;;;;;;5050492;28;20029;-81
2021/05/09 01:50:53;;;;;;;6.15;4.30;;;11.90;80.40;;;;;;5050730;28;20029;-84
2021/05/09 01:53:20;;;;;;;6.95;4.63;;;12.00;80.70;;;;;;5052115;28;20067;-83
2021/05/09 01:55:46;;;;;;;7.00;4.40;;;11.90;80.80;;;;;;5054620;28;20037;-85
2021/05/09 01:58:11;;;;;;;7.72;4.20;;;11.60;79.60;;;;;;5054509;28;20021;-75
2021/05/09 02:00:37;;;;;;;8.45;4.10;;;11.80;81.00;;;;;;5054380;28;20051;-78
2021/05/09 02:03:03;;;;;;;5.22;4.45;;;11.90;79.90;;;;;;5054310;28;20021;-78
2021/05/09 02:05:29;;;;;;;5.32;4.10;;;12.00;79.50;;;;;;5054646;28;20031;-81
2021/05/09 02:07:55;;;;;;;4.20;3.67;;;11.80;80.90;;;;;;5054601;28;20105;-81
2021/05/09 02:10:20;;;;;;;5.95;4.25;;;11.00;81.30;;;;;;5054492;28;20454;-82
2021/05/09 02:12:46;;;;;;;5.22;3.83;;;11.30;82.90;;;;;;5054633;28;20519;-82
2021/05/09 02:15:12;;;;;;;6.88;4.05;;;11.40;82.20;;;;;;5054550;28;20365;-78
2021/05/09 02:17:38;;;;;;;4.63;3.58;;;11.00;84.30;;;;;;5053639;28;20060;-80
2021/05/09 02:20:06;;;;;;;7.00;4.30;;;10.50;84.20;;;;;;5054187;28;20039;-81
2021/05/09 02:22:32;;;;;;;5.75;4.05;;;10.20;85.80;;;;;;5035850;28;20033;-83
2021/05/09 02:24:58;;;;;;;5.68;4.30;;;10.00;86.70;;;;;;5054346;28;20029;-79
2021/05/09 02:27:24;;;;;;;5.00;3.97;;;10.00;87.50;;;;;;5053916;28;20017;-79
2021/05/09 02:29:50;;;;;;;6.30;4.10;;;10.00;88.30;;;;;;5054407;28;20353;-81
2021/05/09 02:32:16;;;;;;;5.15;4.13;;;10.20;88.30;;;;;;5053950;28;20372;-81
2021/05/09 02:34:41;;;;;;;5.82;4.20;;;10.30;88.40;;;;;;5053676;28;20537;-80
2021/05/09 02:37:07;;;;;;;4.88;4.15;;;10.80;87.70;;;;;;5054229;28;20037;-79
2021/05/09 02:39:33;;;;;;;5.97;4.00;;;11.10;86.70;;;;;;5053772;28;20395;-82
2021/05/09 02:42:00;;;;;;;5.03;3.97;;;11.40;85.40;;;;;;5053313;28;20018;-84
2021/05/09 02:44:25;;;;;;;4.93;3.78;;;11.50;84.80;;;;;;5053461;28;20036;-81
2021/05/09 02:46:51;;;;;;;5.70;4.00;;;11.60;85.40;;;;;;5053548;28;20013;-80
2021/05/09 02:49:17;;;;;;;6.07;3.88;;;11.60;85.50;;;;;;5053200;28;20028;-81
2021/05/09 02:51:43;;;;;;;7.68;4.85;;;11.40;85.80;;;;;;5053723;28;20021;-80
2021/05/09 02:54:09;;;;;;;6.05;4.80;;;11.50;87.70;;;;;;5054012;28;20035;-82
2021/05/09 02:56:34;;;;;;;6.82;5.05;;;11.40;89.80;;;;;;5053755;28;20036;-81
2021/05/09 02:59:01;;;;;;;7.32;5.10;;;11.40;90.40;;;;;;5053129;28;20041;-80
2021/05/09 03:01:27;;;;;;;9.68;5.03;;;11.30;90.70;;;;;;5035278;28;20436;-81
2021/05/09 03:03:53;;;;;;;6.55;4.63;;;11.00;91.30;;;;;;5034929;28;20128;-81
2021/05/09 03:06:18;;;;;;;9.50;5.15;;;10.90;91.90;;;;;;5053347;28;20025;-81
2021/05/09 03:08:44;;;;;;;7.53;4.80;;;10.90;92.30;;;;;;5053140;28;20538;-82
2021/05/09 03:11:10;;;;;;;8.82;6.05;;;10.90;92.70;;;;;;5053705;28;20511;-80
2021/05/09 03:13:36;;;;;;;7.50;5.25;;;11.10;93.10;;;;;;5053375;28;20423;-85
2021/05/09 03:16:02;;;;;;;6.70;5.07;;;10.90;93.00;;;;;;5053764;28;20029;-84
2021/05/09 03:18:28;;;;;;;8.10;5.53;;;11.00;93.80;;;;;;5053418;28;20420;-78
2021/05/09 03:20:54;;;;;;;6.57;5.07;;;10.90;94.10;;;;;;5053469;28;20464;-81
2021/05/09 03:23:20;;;;;;;7.30;5.18;;;10.80;95.10;;;;;;5053777;28;20036;-76
2021/05/09 03:25:47;;;;;;;8.20;5.35;;;10.50;95.60;;;;;;5054477;28;20146;-78
2021/05/09 03:28:13;;;;;;;7.82;4.90;;;10.70;96.70;;;;;;5053799;28;20025;-82
2021/05/09 03:30:39;;;;;;;6.93;4.80;;;10.70;97.00;;;;;;5053472;28;20028;-83
2021/05/09 03:33:05;;;;;;;6.97;4.95;;;10.50;97.50;;;;;;5052887;28;20353;-76
2021/05/09 03:35:31;;;;;;;6.18;4.80;;;10.50;98.50;;;;;;5052749;28;20358;-80
2021/05/09 03:37:58;;;;;;;7.95;5.55;;;10.40;99.20;;;;;;5053112;28;20479;-81
2021/05/09 03:40:24;;;;;;;6.95;5.13;;;10.60;99.30;;;;;;5052510;28;20037;-79
2021/05/09 03:42:50;;;;;;;9.15;5.28;;;10.70;99.90;;;;;;5052964;28;20031;-81
2021/05/09 03:45:16;;;;;;;7.03;4.32;;;10.90;99.40;;;;;;5052293;28;20472;-78
2021/05/09 03:47:42;;;;;;;11.07;4.90;;;11.00;98.70;;;;;;5052489;28;20023;-78
2021/05/09 03:50:08;;;;;;;8.57;5.47;;;11.00;98.30;;;;;;5052648;28;20488;-78
2021/05/09 03:52:34;;;;;;;7.60;5.03;;;11.00;98.40;;;;;;5052536;28;20074;-80
2021/05/09 03:54:59;;;;;;;8.18;5.35;;;11.00;98.20;;;;;;5052269;28;20045;-80
2021/05/09 03:57:25;;;;;;;7.38;5.03;;;11.00;98.40;;;;;;5052892;28;20098;-78
2021/05/09 03:59:53;;;;;;;7.18;4.85;;;10.80;98.70;;;;;;5051817;28;20059;-76
2021/05/09 04:02:19;;;;;;;7.47;4.90;;;10.80;98.40;;;;;;5052103;28;20021;-80
2021/05/09 04:04:45;;;;;;;6.32;4.90;;;10.80;98.20;;;;;;5052442;28;20094;-80
2021/05/09 04:07:10;;;;;;;5.75;4.78;;;10.80;98.20;;;;;;5052186;28;20561;-80
2021/05/09 04:09:36;;;;;;;5.93;4.65;;;11.00;98.20;;;;;;5051919;28;20051;-80
2021/05/09 04:12:03;;;;;;;6.20;4.97;;;10.90;98.10;;;;;;5052326;28;20021;-80
2021/05/09 04:14:29;;;;;;;5.63;4.63;;;11.20;99.00;;;;;;5050854;28;20020;-78
2021/05/09 04:16:56;;;;;;;7.25;4.43;;;11.30;98.30;;;;;;5031391;28;20026;-81
2021/05/09 04:19:22;;;;;;;6.18;4.85;;;11.30;98.80;;;;;;5032039;28;20060;-77
2021/05/09 04:21:48;;;;;;;6.68;4.85;;;11.30;98.80;;;;;;5031778;28;20022;-76
2021/05/09 04:24:14;;;;;;;6.47;4.95;;;11.30;99.20;;;;;;5031972;28;20793;-77
2021/05/09 04:26:39;;;;;;;10.85;5.70;;;11.10;99.50;;;;;;5032256;28;20473;-82
2021/05/09 04:29:05;;;;;;;6.75;5.40;;;11.20;99.90;;;;;;5032356;28;20028;-81
2021/05/09 04:31:31;;;;;;;8.93;5.07;;;11.30;99.90;;;;;;5031833;28;20068;-78
2021/05/09 04:33:57;;;;;;;6.97;4.78;;;11.00;99.90;;;;;;5032066;28;20025;-78
2021/05/09 04:36:24;;;;;;;6.53;4.63;;;10.80;99.90;;;;;;5031897;28;20029;-79
2021/05/09 04:38:50;;;;;;;6.70;4.85;;;11.10;99.90;;;;;;5032166;28;20025;-75
2021/05/09 04:41:15;;;;;;;6.75;5.05;;;11.20;98.90;;;;;;5031264;28;20362;-78
2021/05/09 04:43:42;;;;;;;7.25;4.80;;;11.30;98.80;;;;;;5031948;28;20025;-79
2021/05/09 04:46:08;;;;;;;7.28;4.97;;;11.40;98.10;;;;;;5031426;28;20025;-81
2021/05/09 04:48:33;;;;;;;6.03;4.60;;;11.40;97.70;;;;;;5031424;28;20036;-80
2021/05/09 04:50:59;;;;;;;6.30;4.75;;;11.30;97.70;;;;;;5031565;28;20044;-81
2021/05/09 04:53:33;;;;;;;8.27;4.75;;;11.30;98.20;;;;;;5032190;28;20056;-79
2021/05/09 04:56:01;;;;;;;6.50;4.72;;;11.50;97.80;;;;;;5031667;28;20385;-81
2021/05/09 04:58:28;;;;;;;6.13;4.43;;;11.60;97.90;;;;;;5031487;28;20038;-79
2021/05/09 05:01:00;;;;;;;6.22;4.50;;;11.50;97.60;;;;;;5031278;28;20026;-78
2021/05/09 05:03:26;;;;;;;5.88;4.35;;;11.40;97.60;;;;;;5031591;28;20021;-79
2021/05/09 05:05:52;;;;;;;7.63;4.22;;;11.50;97.40;;;;;;5013723;28;20515;-81
2021/05/09 05:08:18;;;;;;;6.60;4.38;;;11.40;97.20;;;;;;5013635;28;20034;-78
2021/05/09 05:10:44;;;;;;;7.07;4.65;;;11.50;97.30;;;;;;5031328;28;20041;-78
2021/05/09 05:13:19;;;;;;;7.32;4.70;;;11.60;97.40;;;;;;5031473;28;20068;-79
2021/05/09 05:15:47;;;;;;;9.20;5.20;;;11.80;97.70;;;;;;5041232;28;20110;-77
2021/05/09 05:18:13;;;;;;;7.30;4.57;;;11.40;98.10;;;;;;5051079;28;20096;-77
2021/05/09 05:20:39;;;;;;;7.90;4.47;;;11.50;98.30;;;;;;5051259;28;20498;-77
2021/05/09 05:23:04;;;;;;;7.25;4.60;;;11.70;97.80;;;;;;5033324;28;20029;-80
2021/05/09 05:25:30;;;;;;;7.03;4.38;;;11.80;97.20;;;;;;5051129;28;20029;-80
2021/05/09 05:27:56;;;;;;;6.80;4.57;;;12.00;97.40;;;;;;5035362;28;20044;-81
2021/05/09 05:30:22;;;;;;;5.50;4.20;;;11.90;96.80;;;;;;5055077;28;20024;-79
2021/05/09 05:32:48;;;;;;;6.38;4.20;;;12.00;97.10;;;;;;5055056;28;20036;-78
2021/05/09 05:35:14;;;;;;;8.13;4.30;;;12.00;95.90;;;;;;5037112;28;20025;-78
2021/05/09 05:37:40;;;;;;;7.88;4.18;;;12.10;96.00;;;;;;5055208;28;20224;-76
2021/05/09 05:40:07;;;;;;;8.25;4.32;;;12.20;96.40;;;;;;5054851;28;20069;-78
2021/05/09 05:42:33;;;;;;;6.80;3.85;;;12.30;95.40;;;;;;5054867;28;20476;-77
2021/05/09 05:44:58;;;;;;;6.60;4.05;;;12.40;94.90;;;;;;5054885;28;20055;-79
2021/05/09 05:47:24;;;;;;;7.55;4.63;;;12.50;94.00;;;;;;5054206;28;20520;-79
2021/05/09 05:49:54;;;;;;;6.70;4.10;;;12.30;94.40;;;;;;5054849;28;20052;-78
2021/05/09 05:52:20;;;;;;;6.95;4.47;;;12.40;94.50;;;;;;5054593;28;20129;-78
2021/05/09 05:54:46;;;;;;;9.13;4.68;;;12.40;93.80;;;;;;5054560;28;20033;-77
2021/05/09 05:57:12;;;;;;;7.40;4.03;;;12.50;93.40;;;;;;5036896;28;20029;-77
2021/05/09 05:59:37;;;;;;;8.70;4.53;;;12.70;93.70;;;;;;5054535;28;20168;-77
2021/05/09 06:02:03;;;;;;;6.68;4.43;;;12.70;93.40;;;;;;5054448;28;20067;-79
2021/05/09 06:04:29;;;;;;;9.55;4.40;;;12.60;93.30;;;;;;5054664;28;20528;-79
2021/05/09 06:06:54;;;;;;;6.78;4.47;;;12.60;93.30;;;;;;5054062;28;20388;-82
2021/05/09 06:09:20;;;;;;;5.45;4.10;;;12.60;92.60;;;;;;5054371;28;20484;-78
2021/05/09 06:11:46;;;;;;;6.13;4.28;;;12.50;92.60;;;;;;5054385;28;20025;-84
2021/05/09 06:14:12;;;;;;;7.40;4.60;;;12.70;92.70;;;;;;5054991;28;20090;-85
2021/05/09 06:16:37;;;;;;;8.10;4.25;;;12.80;93.00;;;;;;5054685;28;20376;-84
2021/05/09 06:19:03;;;;;;;9.52;4.40;;;13.00;92.40;;;;;;5054539;28;20108;-80
2021/05/09 06:21:29;;;;;;;8.23;4.38;;;12.80;91.60;;;;;;5053968;28;20021;-83
2021/05/09 06:23:55;;;;;;;9.88;4.80;;;12.80;91.80;;;;;;5054479;28;20029;-82
2021/05/09 06:26:21;;;;;;;14.50;10.10;;;13.00;91.70;;;;;;5054847;28;20029;-88
2021/05/09 06:28:48;;;;;;;12.45;8.43;;;13.40;93.70;;;;;;5055885;28;20017;-85
2021/05/09 06:31:14;;;;;;;14.93;10.10;;;13.40;90.80;;;;;;5055043;28;20021;-87
2021/05/09 06:33:39;;;;;;;19.60;11.85;;;13.60;91.50;;;;;;5058605;28;20142;-95
2021/05/09 06:36:07;;;;;;;31.67;17.58;;;13.50;91.40;;;;;;5058093;28;20361;-88
2021/05/09 06:38:33;;;;;;;21.10;13.05;;;13.40;90.00;;;;;;5055310;28;20041;-83
2021/05/09 06:40:59;;;;;;;8.35;6.03;;;13.50;90.10;;;;;;5028297;28;20032;-87
2021/05/09 06:43:27;;;;;;;7.25;4.32;;;13.30;89.30;;;;;;5029307;28;20094;-81
2021/05/09 06:45:54;;;;;;;7.38;4.47;;;13.40;88.50;;;;;;5036876;28;20026;-84
2021/05/09 06:48:20;;;;;;;6.00;4.45;;;13.40;88.40;;;;;;5033180;28;20096;-86
2021/05/09 06:50:45;;;;;;;6.57;4.03;;;13.50;87.80;;;;;;5034593;28;20029;-87
2021/05/09 06:53:11;;;;;;;7.80;4.80;;;13.60;88.10;;;;;;5032335;28;20105;-82
2021/05/09 06:55:37;;;;;;;6.72;4.57;;;13.70;88.80;;;;;;5028595;28;20413;-83
2021/05/09 06:58:03;;;;;;;10.10;5.28;;;13.70;88.70;;;;;;5032667;28;20028;-84
2021/05/09 07:00:29;;;;;;;8.75;4.88;;;13.80;88.90;;;;;;5017216;28;20026;-90
2021/05/09 07:02:56;;;;;;;8.63;4.93;;;13.80;88.00;;;;;;5033847;28;20037;-80
2021/05/09 07:05:21;;;;;;;6.47;4.18;;;13.70;87.90;;;;;;5016543;28;20163;-87
2021/05/09 07:07:57;;;;;;;10.40;4.88;;;13.90;89.20;;;;;;5028975;28;20536;-86
2021/05/09 07:10:27;;;;;;;8.20;4.65;;;14.10;88.10;;;;;;5031123;28;20029;-85
2021/05/09 07:12:56;;;;;;;8.52;4.35;;;14.20;87.80;;;;;;5023530;28;20022;-79
2021/05/09 07:15:32;;;;;;;6.68;4.60;;;14.30;87.40;;;;;;5033074;28;20147;-85
2021/05/09 07:18:08;;;;;;;6.90;4.45;;;14.40;87.50;;;;;;5049816;28;20045;-84
2021/05/09 07:20:37;;;;;;;8.40;4.90;;;14.40;87.70;;;;;;5033994;28;20041;-78
2021/05/09 07:23:05;;;;;;;8.98;4.22;;;14.50;87.40;;;;;;5029469;28;20120;-87
2021/05/09 07:25:31;;;;;;;8.40;4.80;;;14.60;86.90;;;;;;5034987;28;20112;-78
2021/05/09 07:28:05;;;;;;;7.93;4.07;;;14.60;86.90;;;;;;5012733;28;20018;-82
2021/05/09 07:30:31;;;;;;;7.05;4.53;;;14.70;85.80;;;;;;5011508;28;20021;-77
2021/05/09 07:32:57;;;;;;;6.88;4.65;;;14.50;85.80;;;;;;5028890;28;20021;-78
2021/05/09 07:35:23;;;;;;;5.95;4.53;;;14.60;87.10;;;;;;5031900;28;20049;-84
2021/05/09 07:37:48;;;;;;;18.58;11.05;;;14.70;86.20;;;;;;5038832;28;20126;-90
2021/05/09 07:40:14;;;;;;;47.40;28.95;;;14.90;84.70;;;;;;5022258;28;20049;-92
2021/05/09 07:42:40;;;;;;;25.10;16.25;;;15.00;83.90;;;;;;5033741;28;20120;-83
2021/05/09 07:45:09;;;;;;;12.45;5.20;;;15.00;82.60;;;;;;5031438;28;20038;-78
2021/05/09 07:47:34;;;;;;;7.00;4.10;;;14.70;78.30;;;;;;5031991;28;20018;-80
2021/05/09 07:50:00;;;;;;;6.93;4.07;;;14.80;80.60;;;;;;5032083;28;20036;-90
2021/05/09 07:52:26;;;;;;;9.23;4.32;;;14.80;79.30;;;;;;5031736;28;20028;-81
2021/05/09 07:54:52;;;;;;;5.57;3.80;;;14.80;79.10;;;;;;5011705;28;20160;-84
2021/05/09 07:57:17;;;;;;;5.88;3.78;;;14.80;78.90;;;;;;5031545;28;20469;-85
2021/05/09 07:59:43;;;;;;;10.25;4.07;;;14.90;78.80;;;;;;5031694;28;20423;-78
2021/05/09 08:02:09;;;;;;;5.72;3.60;;;15.10;77.30;;;;;;5030760;28;20022;-77
2021/05/09 08:04:35;;;;;;;5.28;3.65;;;15.10;75.60;;;;;;5030183;28;20025;-78
2021/05/09 08:07:00;;;;;;;6.32;3.90;;;15.20;74.40;;;;;;5029873;28;20025;-79
2021/05/09 08:09:26;;;;;;;7.55;4.18;;;15.30;73.40;;;;;;5030689;28;20040;-77
2021/05/09 08:11:52;;;;;;;8.30;3.70;;;15.30;72.80;;;;;;5032050;28;20104;-78
2021/05/09 08:14:18;;;;;;;7.72;4.30;;;15.40;72.60;;;;;;5031515;28;20033;-82
2021/05/09 08:16:43;;;;;;;5.65;3.47;;;15.60;72.90;;;;;;5031440;28;20033;-82
2021/05/09 08:19:09;;;;;;;8.10;4.35;;;15.60;71.30;;;;;;5030929;28;20493;-81
2021/05/09 08:21:35;;;;;;;8.18;5.00;;;15.90;73.40;;;;;;5013888;28;20045;-79
2021/05/09 08:24:01;;;;;;;14.48;9.35;;;16.20;75.20;;;;;;5033051;28;20427;-85
2021/05/09 08:26:26;;;;;;;84.07;50.78;;;16.30;73.70;;;;;;5040961;28;20037;-83
2021/05/09 08:28:52;;;;;;;33.15;22.90;;;16.50;74.90;;;;;;5050278;28;20638;-80
2021/05/09 08:31:18;;;;;;;6.50;4.25;;;16.40;77.30;;;;;;5049427;28;20025;-76
2021/05/09 08:33:44;;;;;;;7.05;3.55;;;16.20;75.90;;;;;;5030700;28;20057;-76
2021/05/09 08:36:10;;;;;;;6.38;3.38;;;16.00;70.30;;;;;;5031133;28;20432;-78
2021/05/09 08:38:36;;;;;;;8.00;3.78;;;16.00;73.60;;;;;;5031374;28;20045;-79
2021/05/09 08:41:02;;;;;;;7.38;3.22;;;16.00;73.80;;;;;;5028709;28;20025;-79
2021/05/09 08:43:28;;;;;;;7.80;4.00;;;16.10;73.20;;;;;;5011229;28;20116;-78
2021/05/09 08:45:57;;;;;;;9.85;4.07;;;16.20;76.80;;;;;;5030907;28;20028;-77
2021/05/09 08:48:27;;;;;;;7.78;3.67;;;16.00;73.70;;;;;;5030485;28;20388;-79
2021/05/09 08:50:54;;;;;;;4.88;2.83;;;15.90;75.10;;;;;;5013755;28;20033;-78
2021/05/09 08:53:20;;;;;;;6.22;3.33;;;16.00;70.60;;;;;;5027574;28;20044;-81
2021/05/09 08:55:49;;;;;;;8.68;3.88;;;16.30;70.70;;;;;;5029640;28;20022;-79
2021/05/09 08:58:15;;;;;;;6.53;3.90;;;16.40;70.60;;;;;;5045368;28;20048;-79
2021/05/09 09:00:44;;;;;;;35.60;21.55;;;16.50;71.20;;;;;;5051712;28;20067;-81
2021/05/09 09:03:13;;;;;;;78.15;46.00;;;16.70;70.40;;;;;;5042673;28;20033;-81
2021/05/09 09:05:42;;;;;;;11.02;6.95;;;17.00;70.60;;;;;;5041354;28;20044;-78
2021/05/09 09:08:09;;;;;;;5.68;4.03;;;17.20;69.70;;;;;;5047794;28;20029;-80
2021/05/09 09:10:55;;;;;;;5.63;3.17;;;17.40;68.60;;;;;;5044345;28;20026;-81
2021/05/09 09:13:32;;;;;;;5.18;3.17;;;17.40;67.20;;;;;;5006968;28;20369;-79
2021/05/09 09:16:04;;;;;;;5.38;2.85;;;17.70;68.40;;;;;;5017545;28;20163;-79
2021/05/09 09:18:30;;;;;;;5.95;3.00;;;17.90;68.20;;;;;;5048014;28;20103;-79
2021/05/09 09:20:58;;;;;;;4.88;2.90;;;18.30;69.20;;;;;;5036772;28;20476;-80
2021/05/09 09:23:43;;;;;;;9.55;5.50;;;18.40;66.10;;;;;;5029697;28;20021;-80
2021/05/09 09:26:40;;;;;;;49.50;29.30;;;18.60;64.60;;;;;;5030888;28;20028;-84
2021/05/09 09:29:30;;;;;;;8.95;5.43;;;18.70;66.80;;;;;;5012769;28;20045;-78
2021/05/09 09:32:02;;;;;;;33.17;20.92;;;18.60;64.80;;;;;;5036637;28;20025;-85
2021/05/09 09:34:50;;;;;;;20.23;13.00;;;19.20;66.30;;;;;;5031110;28;20045;-79
2021/05/09 09:37:20;;;;;;;8.60;3.50;;;18.70;63.30;;;;;;5011715;28;20064;-77
2021/05/09 09:39:59;;;;;;;5.93;3.20;;;18.60;64.30;;;;;;5011248;28;20033;-78
2021/05/09 09:42:35;;;;;;;4.47;2.80;;;18.50;63.40;;;;;;5026125;28;20018;-76
2021/05/09 09:45:23;;;;;;;6.13;3.03;;;18.60;65.60;;;;;;5029985;28;20424;-76
2021/05/09 09:47:53;;;;;;;5.47;2.75;;;19.00;64.10;;;;;;5030523;28;20029;-76
2021/05/09 09:50:39;;;;;;;;;;;19.30;65.10;;;;;;5010834;28;20362;-77
2021/05/09 09:53:24;;;;;;;5.03;2.38;;;19.20;63.40;;;;;;5028309;28;19905;-78
2021/05/09 09:56:20;;;;;;;3.97;2.22;;;19.50;62.60;;;;;;5017387;28;20060;-77
2021/05/09 09:58:52;;;;;;;4.95;2.50;;;19.60;61.40;;;;;;5006171;28;20061;-77
2021/05/09 10:01:41;;;;;;;4.05;2.28;;;19.90;60.30;;;;;;5017857;28;20100;-75
2021/05/09 10:04:09;;;;;;;6.10;2.45;;;20.10;58.00;;;;;;4992803;28;20389;-75
2021/05/09 10:06:38;;;;;;;4.72;2.58;;;20.10;58.50;;;;;;5010374;28;20030;-75
2021/05/09 10:09:05;;;;;;;4.80;2.50;;;20.40;58.70;;;;;;5010437;28;20037;-76
2021/05/09 10:11:31;;;;;;;3.28;1.90;;;20.10;56.00;;;;;;5024609;28;20080;-76
2021/05/09 10:13:58;;;;;;;4.47;2.08;;;20.30;55.90;;;;;;5011228;28;20026;-76
2021/05/09 10:16:26;;;;;;;3.17;1.52;;;20.20;54.60;;;;;;5028202;28;20040;-77
2021/05/09 10:19:01;;;;;;;2.97;1.77;;;20.30;52.70;;;;;;5023722;28;20051;-78
2021/05/09 10:21:34;;;;;;;3.63;1.52;;;20.20;52.10;;;;;;5013950;28;20444;-75
2021/05/09 10:24:10;;;;;;;5.43;1.85;;;20.30;52.10;;;;;;5014002;28;20054;-77
2021/05/09 10:27:07;;;;;;;4.18;1.70;;;20.40;51.50;;;;;;5049709;28;20025;-79
2021/05/09 10:29:37;;;;;;;3.25;1.60;;;20.70;51.40;;;;;;5020622;28;20124;-82
2021/05/09 10:32:09;;;;;;;13.80;7.80;;;20.80;50.80;;;;;;5027815;28;20018;-81
2021/05/09 10:34:53;;;;;;;25.58;15.75;;;20.40;54.10;;;;;;5032564;28;20037;-82
2021/05/09 10:40:36;;;;;;;8.55;3.53;;;20.40;51.60;;;;;;5033684;28;20428;-80
2021/05/09 10:43:02;;;;;;;4.95;2.85;;;20.60;52.20;;;;;;5048586;28;20476;-81
2021/05/09 10:45:36;;;;;;;8.18;3.67;;;20.40;50.40;;;;;;5052810;28;20029;-82
2021/05/09 10:51:22;;;;;;;6.93;2.20;;;21.20;49.30;;;;;;5053067;28;20037;-81
2021/05/09 10:53:48;;;;;;;7.05;3.00;;;21.50;51.00;;;;;;5053145;28;20116;-79
2021/05/09 10:56:13;;;;;;;4.53;2.47;;;21.60;50.50;;;;;;5052761;28;20100;-81
2021/05/09 10:58:49;;;;;;;5.43;2.15;;;21.50;49.50;;;;;;5035648;28;20401;-81
2021/05/09 11:01:45;;;;;;;3.35;1.80;;;21.30;48.90;;;;;;5053372;28;20060;-85
2021/05/09 11:04:12;;;;;;;2.95;1.80;;;21.30;47.90;;;;;;5049872;28;20045;-83
2021/05/09 11:06:45;;;;;;;2.50;1.48;;;21.20;48.70;;;;;;5053631;28;20025;-83
2021/05/09 11:09:12;;;;;;;5.28;2.10;;;21.20;48.40;;;;;;5052650;28;20480;-87
2021/05/09 11:11:38;;;;;;;1.77;1.30;;;21.60;49.30;;;;;;5052804;28;20108;-85
2021/05/09 11:14:10;;;;;;;2.85;1.58;;;21.70;48.30;;;;;;5053555;28;20112;-83
2021/05/09 11:16:41;;;;;;;2.83;1.67;;;21.60;48.50;;;;;;5052308;28;20358;-83
2021/05/09 11:19:09;;;;;;;3.60;1.70;;;22.10;49.60;;;;;;5052761;28;20051;-85
2021/05/09 11:21:56;;;;;;;5.57;1.70;;;22.00;50.20;;;;;;5052787;28;20021;-86
2021/05/09 11:24:24;;;;;;;6.28;1.98;;;22.00;50.50;;;;;;5052890;28;20025;-81
2021/05/09 11:27:03;;;;;;;2.92;1.40;;;21.70;51.00;;;;;;5052196;28;20025;-77
2021/05/09 11:29:29;;;;;;;2.63;1.40;;;21.90;51.50;;;;;;5034323;28;20033;-80
2021/05/09 11:32:07;;;;;;;4.95;1.55;;;22.20;50.90;;;;;;5052691;28;20017;-79
2021/05/09 11:34:33;;;;;;;3.50;1.52;;;22.30;50.20;;;;;;5051951;28;20388;-80
2021/05/09 11:36:59;;;;;;;2.72;1.30;;;22.60;50.40;;;;;;5052866;28;20036;-82
2021/05/09 11:39:33;;;;;;;2.88;1.40;;;22.10;50.10;;;;;;5052313;28;20032;-79
2021/05/09 11:41:59;;;;;;;5.72;1.60;;;22.40;51.30;;;;;;5051699;28;20017;-81
2021/05/09 11:44:26;;;;;;;2.63;1.55;;;22.70;51.30;;;;;;5033389;28;20040;-84
2021/05/09 11:46:53;;;;;;;2.85;1.33;;;23.10;51.00;;;;;;5052396;28;20380;-79
2021/05/09 11:49:20;;;;;;;1.95;1.20;;;23.00;50.70;;;;;;5051949;28;20127;-82
2021/05/09 11:51:54;;;;;;;2.38;1.42;;;22.80;50.20;;;;;;5051650;28;20105;-78
2021/05/09 11:54:22;;;;;;;2.97;1.55;;;22.50;48.80;;;;;;5052580;28;20490;-87
2021/05/09 11:56:56;;;;;;;13.25;8.52;;;23.00;49.20;;;;;;5050060;28;20425;-84
2021/05/09 12:01:47;;;;;;;3.45;1.80;;;23.00;48.50;;;;;;5017740;23;20049;-80
2021/05/09 12:04:13;;;;;;;3.90;1.50;;;22.80;48.20;;;;;;5011806;28;20069;-81
2021/05/09 12:06:40;;;;;;;3.60;1.83;;;23.40;47.70;;;;;;5011968;28;20022;-82
2021/05/09 12:09:06;;;;;;;2.47;1.35;;;23.40;47.00;;;;;;5012331;28;20037;-80
2021/05/09 12:11:33;;;;;;;2.83;1.30;;;23.30;46.60;;;;;;5011790;28;20350;-79
2021/05/09 12:13:59;;;;;;;5.82;1.48;;;23.00;47.10;;;;;;5011802;28;20022;-83
2021/05/09 12:16:24;;;;;;;4.30;1.50;;;23.00;47.20;;;;;;5011591;28;20101;-81
2021/05/09 12:19:05;;;;;;;3.38;1.60;;;22.90;46.80;;;;;;4993224;28;20061;-87
2021/05/09 12:21:38;;;;;;;2.88;1.50;;;22.90;47.10;;;;;;5008788;28;20041;-85
2021/05/09 12:24:13;;;;;;;5.13;2.20;;;23.60;47.80;;;;;;4975203;28;20026;-80
2021/05/09 12:27:13;;;;;;;6.22;1.70;;;23.60;48.20;;;;;;4974949;28;20076;-82
2021/05/09 12:30:28;;;;;;;2.83;1.58;;;24.00;47.80;;;;;;4973767;28;20122;-85
2021/05/09 12:33:06;;;;;;;4.07;1.90;;;23.90;47.60;;;;;;4978019;28;20400;-87
2021/05/09 12:36:20;;;;;;;4.32;2.20;;;24.00;47.40;;;;;;4975414;28;20537;-81
2021/05/09 12:38:46;;;;;;;10.52;2.08;;;23.30;48.00;;;;;;4984953;28;20173;-81
2021/05/09 12:44:40;;;;;;;9.80;1.92;;;23.90;48.10;;;;;;5031503;23;20084;-81
2021/05/09 12:47:21;;;;;;;3.20;1.67;;;23.90;46.40;;;;;;5013449;28;20465;-81
2021/05/09 12:49:59;;;;;;;4.07;1.70;;;24.40;47.30;;;;;;5013245;28;20033;-89
2021/05/09 12:52:25;;;;;;;3.45;1.63;;;24.00;46.30;;;;;;5015615;28;20372;-83
2021/05/09 12:54:51;;;;;;;5.72;1.80;;;23.60;47.30;;;;;;5013701;28;20468;-80
2021/05/09 13:00:00;;;;;;;4.50;1.88;;;23.50;47.10;;;;;;5016417;22;20072;-87
2021/05/09 13:02:29;;;;;;;3.88;2.15;;;23.70;48.40;;;;;;5010036;28;20061;-78
2021/05/09 13:05:00;;;;;;;15.23;10.37;;;23.60;47.10;;;;;;4994002;28;20073;-81
2021/05/09 13:07:26;;;;;;;;;;;23.90;48.00;;;;;;5010338;28;20278;-81